Sample Charts Sidebar
> Live data! Your data is on the web site for you to access within minutes
 
> Detailed data is easily downloaded as data file, which can be opened with Excel
 
> Charts can be customised if necessary
  Chart 1
 

(A maximum of 50 rows are displayed here. Use "Export Data" to see all rows in the date range.)
Date Collected Temperature
(Celcius)
Wind-chill
(Celcius)
Wind Speed
(km/hr)
Gust
(km/hr)
Wind Direction
(degrees)
2019-04-26 10:00 9.6 9.2 2 8 200
2019-04-26 09:00 9.5 8.1 4 11 197
2019-04-26 08:00 9.7 9.0 3 10 222
2019-04-26 07:00 11.2 10.3 3 8 234
2019-04-26 06:00 12.8 12.2 3 10 345
2019-04-26 05:00 13.2 11.6 4 13 342
2019-04-26 04:00 13.0 12.3 3 10 356
2019-04-26 03:00 13.4 11.8 5 16 353
2019-04-26 02:00 14.4 11.4 6 20 348
2019-04-26 01:00 14.2 11.6 6 16 12
2019-04-26 00:00 14.2 12.1 5 15 350
2019-04-25 23:00 13.5 11.7 5 13 347
2019-04-25 22:00 13.6 12.9 3 8 1
2019-04-25 21:00 13.3 11.6 5 10 50
2019-04-25 20:00 14.1 12.8 4 13 20
2019-04-25 19:00 14.7 13.1 5 16 348
2019-04-25 18:00 15.3 13.8 4 14 359
2019-04-25 17:00 15.2 12.9 6 18 343
2019-04-25 16:00 15.5 13.5 5 16 336
2019-04-25 15:00 16.3 12.9 7 25 345
2019-04-25 14:00 16.8 13.9 7 20 21
2019-04-25 13:00 16.3 12.9 7 19 3
2019-04-25 12:00 15.8 13.2 6 16 19
2019-04-25 11:00 15.2 12.1 7 15 16
2019-04-25 10:00 12.1 9.1 5 16 31
2019-04-25 09:00 8.4 6.5 4 8 61
2019-04-25 08:00 6.5 4.1 5 9 57
2019-04-25 07:00 5.5 3.3 4 8 44
2019-04-25 06:00 4.4 1.4 5 10 56
2019-04-25 05:00 4.0 1.2 5 11 48
2019-04-25 04:00 4.0 1.4 5 10 56
2019-04-25 03:00 3.5 1.1 5 11 56
2019-04-25 02:00 4.0 1.8 4 9 50
2019-04-25 01:00 4.2 1.8 5 10 51
2019-04-25 00:00 4.6 3.1 4 8 49
2019-04-24 23:00 5.0 4.3 3 6 52
2019-04-24 22:00 5.2 5.1 2 6 43
2019-04-24 21:00 5.7 5.8 2 5 36
2019-04-24 20:00 6.7 6.7 1 3 18
2019-04-24 19:00 8.1 8.4 0 1 293
2019-04-24 18:00 10.6 10.7 1 3 207
2019-04-24 17:00 12.5 12.2 3 7 210
2019-04-24 16:00 14.2 14.2 0 0 217
2019-04-24 15:00 14.7 13.9 4 10 201
2019-04-24 14:00 15.3 13.9 4 11 201
2019-04-24 13:00 15.1 14.0 4 10 195
2019-04-24 12:00 14.7 14.0 3 11 196
2019-04-24 11:00 14.9 13.4 4 10 227
2019-04-24 10:00 12.4 12.2 2 5 210
2019-04-24 09:00 8.6 8.3 1 3 40